sensor_id;sensor_type;location;lat;lon;timestamp;P1;durP1;ratioP1;P2;durP2;ratioP2
52542;SDS011;38449;52.696;6.186;2024-01-16T00:02:34;8.23;;;1.60;;
52542;SDS011;38449;52.696;6.186;2024-01-16T00:05:00;3.40;;;2.25;;
52542;SDS011;38449;52.696;6.186;2024-01-16T00:09:52;6.13;;;1.63;;
52542;SDS011;38449;52.696;6.186;2024-01-16T00:12:20;5.18;;;1.50;;
52542;SDS011;38449;52.696;6.186;2024-01-16T00:14:46;5.78;;;1.92;;
52542;SDS011;38449;52.696;6.186;2024-01-16T00:19:39;7.68;;;1.70;;
52542;SDS011;38449;52.696;6.186;2024-01-16T00:22:06;3.70;;;1.15;;
52542;SDS011;38449;52.696;6.186;2024-01-16T00:26:59;5.75;;;1.33;;
52542;SDS011;38449;52.696;6.186;2024-01-16T00:31:51;6.13;;;1.20;;
52542;SDS011;38449;52.696;6.186;2024-01-16T00:34:18;3.45;;;1.30;;
52542;SDS011;38449;52.696;6.186;2024-01-16T00:36:44;3.45;;;1.20;;
52542;SDS011;38449;52.696;6.186;2024-01-16T00:41:37;3.22;;;1.23;;
52542;SDS011;38449;52.696;6.186;2024-01-16T00:46:29;5.40;;;1.52;;
52542;SDS011;38449;52.696;6.186;2024-01-16T00:48:56;9.55;;;2.67;;
52542;SDS011;38449;52.696;6.186;2024-01-16T00:51:22;16.58;;;4.57;;
52542;SDS011;38449;52.696;6.186;2024-01-16T00:56:16;5.65;;;1.60;;
52542;SDS011;38449;52.696;6.186;2024-01-16T01:01:08;6.68;;;2.03;;
52542;SDS011;38449;52.696;6.186;2024-01-16T01:06:02;9.27;;;2.65;;
52542;SDS011;38449;52.696;6.186;2024-01-16T01:08:29;9.00;;;2.63;;
52542;SDS011;38449;52.696;6.186;2024-01-16T01:10:55;5.47;;;1.52;;
52542;SDS011;38449;52.696;6.186;2024-01-16T01:13:22;6.72;;;1.33;;
52542;SDS011;38449;52.696;6.186;2024-01-16T01:15:49;4.60;;;1.60;;
52542;SDS011;38449;52.696;6.186;2024-01-16T01:18:16;6.63;;;2.13;;
52542;SDS011;38449;52.696;6.186;2024-01-16T01:20:43;7.72;;;2.40;;
52542;SDS011;38449;52.696;6.186;2024-01-16T01:23:09;4.22;;;1.98;;
52542;SDS011;38449;52.696;6.186;2024-01-16T01:25:35;4.00;;;1.42;;
52542;SDS011;38449;52.696;6.186;2024-01-16T01:30:28;12.20;;;3.65;;
52542;SDS011;38449;52.696;6.186;2024-01-16T01:35:21;16.33;;;3.13;;
52542;SDS011;38449;52.696;6.186;2024-01-16T01:40:14;8.18;;;3.00;;
52542;SDS011;38449;52.696;6.186;2024-01-16T01:42:41;7.50;;;2.25;;
52542;SDS011;38449;52.696;6.186;2024-01-16T01:45:11;4.10;;;1.88;;
52542;SDS011;38449;52.696;6.186;2024-01-16T01:47:41;4.90;;;1.40;;
52542;SDS011;38449;52.696;6.186;2024-01-16T01:50:10;3.83;;;1.20;;
52542;SDS011;38449;52.696;6.186;2024-01-16T01:52:38;4.03;;;1.30;;
52542;SDS011;38449;52.696;6.186;2024-01-16T01:55:06;5.07;;;1.20;;
52542;SDS011;38449;52.696;6.186;2024-01-16T01:57:36;3.75;;;1.45;;
52542;SDS011;38449;52.696;6.186;2024-01-16T02:00:03;2.47;;;1.10;;
52542;SDS011;38449;52.696;6.186;2024-01-16T02:02:30;6.20;;;1.60;;
52542;SDS011;38449;52.696;6.186;2024-01-16T02:04:57;15.13;;;4.22;;
52542;SDS011;38449;52.696;6.186;2024-01-16T02:07:24;16.77;;;4.68;;
52542;SDS011;38449;52.696;6.186;2024-01-16T02:09:51;23.90;;;5.18;;
52542;SDS011;38449;52.696;6.186;2024-01-16T02:12:17;9.13;;;3.08;;
52542;SDS011;38449;52.696;6.186;2024-01-16T02:14:43;5.35;;;1.58;;
52542;SDS011;38449;52.696;6.186;2024-01-16T02:17:14;12.52;;;2.45;;
52542;SDS011;38449;52.696;6.186;2024-01-16T02:19:40;14.57;;;4.03;;
52542;SDS011;38449;52.696;6.186;2024-01-16T02:24:36;5.45;;;1.73;;
52542;SDS011;38449;52.696;6.186;2024-01-16T02:27:02;6.47;;;1.83;;
52542;SDS011;38449;52.696;6.186;2024-01-16T02:29:29;6.80;;;1.75;;
52542;SDS011;38449;52.696;6.186;2024-01-16T02:31:56;6.60;;;2.10;;
52542;SDS011;38449;52.696;6.186;2024-01-16T02:34:22;9.63;;;2.25;;
52542;SDS011;38449;52.696;6.186;2024-01-16T02:36:49;7.72;;;2.55;;
52542;SDS011;38449;52.696;6.186;2024-01-16T02:39:16;7.75;;;2.75;;
52542;SDS011;38449;52.696;6.186;2024-01-16T02:41:43;4.30;;;2.58;;
52542;SDS011;38449;52.696;6.186;2024-01-16T02:44:10;5.07;;;2.33;;
52542;SDS011;38449;52.696;6.186;2024-01-16T02:46:37;7.18;;;3.15;;
52542;SDS011;38449;52.696;6.186;2024-01-16T02:49:06;8.35;;;2.30;;
52542;SDS011;38449;52.696;6.186;2024-01-16T02:51:33;9.02;;;2.08;;
52542;SDS011;38449;52.696;6.186;2024-01-16T02:56:25;4.90;;;1.30;;
52542;SDS011;38449;52.696;6.186;2024-01-16T03:01:17;7.50;;;1.38;;
52542;SDS011;38449;52.696;6.186;2024-01-16T03:03:44;6.28;;;1.27;;
52542;SDS011;38449;52.696;6.186;2024-01-16T03:11:12;4.63;;;1.35;;
52542;SDS011;38449;52.696;6.186;2024-01-16T03:16:08;5.68;;;1.30;;
52542;SDS011;38449;52.696;6.186;2024-01-16T03:18:35;3.70;;;1.85;;
52542;SDS011;38449;52.696;6.186;2024-01-16T03:21:03;5.80;;;1.67;;
52542;SDS011;38449;52.696;6.186;2024-01-16T03:23:33;5.07;;;1.40;;
52542;SDS011;38449;52.696;6.186;2024-01-16T03:25:59;5.03;;;1.60;;
52542;SDS011;38449;52.696;6.186;2024-01-16T03:28:25;4.57;;;1.30;;
52542;SDS011;38449;52.696;6.186;2024-01-16T03:33:18;4.18;;;1.42;;
52542;SDS011;38449;52.696;6.186;2024-01-16T03:35:44;5.30;;;1.20;;
52542;SDS011;38449;52.696;6.186;2024-01-16T03:40:37;3.92;;;1.80;;
52542;SDS011;38449;52.696;6.186;2024-01-16T03:45:31;3.55;;;1.10;;
52542;SDS011;38449;52.696;6.186;2024-01-16T03:50:24;4.85;;;1.92;;
52542;SDS011;38449;52.696;6.186;2024-01-16T03:55:16;3.70;;;1.63;;
52542;SDS011;38449;52.696;6.186;2024-01-16T04:00:10;2.65;;;1.60;;
52542;SDS011;38449;52.696;6.186;2024-01-16T04:02:38;3.20;;;1.52;;
52542;SDS011;38449;52.696;6.186;2024-01-16T04:05:04;4.45;;;1.50;;
52542;SDS011;38449;52.696;6.186;2024-01-16T04:07:31;3.70;;;1.70;;
52542;SDS011;38449;52.696;6.186;2024-01-16T04:12:23;4.15;;;1.60;;
52542;SDS011;38449;52.696;6.186;2024-01-16T04:17:16;4.78;;;1.30;;
52542;SDS011;38449;52.696;6.186;2024-01-16T04:22:08;7.53;;;1.85;;
52542;SDS011;38449;52.696;6.186;2024-01-16T04:24:34;4.53;;;1.35;;
52542;SDS011;38449;52.696;6.186;2024-01-16T04:29:27;8.48;;;1.63;;
52542;SDS011;38449;52.696;6.186;2024-01-16T04:34:19;3.40;;;1.30;;
52542;SDS011;38449;52.696;6.186;2024-01-16T04:39:12;5.80;;;1.35;;
52542;SDS011;38449;52.696;6.186;2024-01-16T04:41:39;2.80;;;1.30;;
52542;SDS011;38449;52.696;6.186;2024-01-16T04:44:05;3.70;;;1.20;;
52542;SDS011;38449;52.696;6.186;2024-01-16T04:46:32;2.22;;;1.13;;
52542;SDS011;38449;52.696;6.186;2024-01-16T04:48:58;3.42;;;1.50;;
52542;SDS011;38449;52.696;6.186;2024-01-16T04:51:24;6.15;;;2.42;;
52542;SDS011;38449;52.696;6.186;2024-01-16T04:53:51;4.35;;;1.52;;
52542;SDS011;38449;52.696;6.186;2024-01-16T04:56:18;6.03;;;1.52;;
52542;SDS011;38449;52.696;6.186;2024-01-16T04:58:45;7.75;;;2.15;;
52542;SDS011;38449;52.696;6.186;2024-01-16T05:03:38;2.85;;;1.70;;
52542;SDS011;38449;52.696;6.186;2024-01-16T05:08:41;4.72;;;1.75;;
52542;SDS011;38449;52.696;6.186;2024-01-16T05:11:07;6.97;;;1.70;;
52542;SDS011;38449;52.696;6.186;2024-01-16T05:13:34;4.95;;;2.08;;
52542;SDS011;38449;52.696;6.186;2024-01-16T05:16:01;6.45;;;1.52;;
52542;SDS011;38449;52.696;6.186;2024-01-16T05:20:53;4.00;;;1.63;;
52542;SDS011;38449;52.696;6.186;2024-01-16T05:23:22;3.33;;;1.50;;
52542;SDS011;38449;52.696;6.186;2024-01-16T05:25:48;5.13;;;2.28;;
52542;SDS011;38449;52.696;6.186;2024-01-16T05:28:15;4.35;;;1.60;;
52542;SDS011;38449;52.696;6.186;2024-01-16T05:30:41;7.93;;;1.95;;
52542;SDS011;38449;52.696;6.186;2024-01-16T05:33:08;5.55;;;1.92;;
52542;SDS011;38449;52.696;6.186;2024-01-16T05:35:34;5.70;;;2.00;;
52542;SDS011;38449;52.696;6.186;2024-01-16T05:40:26;4.18;;;1.90;;
52542;SDS011;38449;52.696;6.186;2024-01-16T05:45:19;2.28;;;1.50;;
52542;SDS011;38449;52.696;6.186;2024-01-16T05:50:11;5.68;;;2.70;;
52542;SDS011;38449;52.696;6.186;2024-01-16T05:55:06;6.47;;;2.05;;
52542;SDS011;38449;52.696;6.186;2024-01-16T05:57:33;4.40;;;2.00;;
52542;SDS011;38449;52.696;6.186;2024-01-16T06:00:00;3.53;;;1.73;;
52542;SDS011;38449;52.696;6.186;2024-01-16T06:02:29;6.57;;;2.45;;
52542;SDS011;38449;52.696;6.186;2024-01-16T06:04:55;3.58;;;1.83;;
52542;SDS011;38449;52.696;6.186;2024-01-16T06:09:48;4.00;;;2.03;;
52542;SDS011;38449;52.696;6.186;2024-01-16T06:14:40;4.13;;;2.00;;
52542;SDS011;38449;52.696;6.186;2024-01-16T06:19:33;3.20;;;1.95;;
52542;SDS011;38449;52.696;6.186;2024-01-16T06:24:26;4.50;;;2.70;;
52542;SDS011;38449;52.696;6.186;2024-01-16T06:26:52;5.00;;;2.60;;
52542;SDS011;38449;52.696;6.186;2024-01-16T06:31:44;3.97;;;1.95;;
52542;SDS011;38449;52.696;6.186;2024-01-16T06:36:37;6.75;;;3.22;;
52542;SDS011;38449;52.696;6.186;2024-01-16T06:41:29;7.63;;;2.78;;
52542;SDS011;38449;52.696;6.186;2024-01-16T06:46:22;5.18;;;2.92;;
52542;SDS011;38449;52.696;6.186;2024-01-16T06:48:48;5.38;;;3.30;;
52542;SDS011;38449;52.696;6.186;2024-01-16T06:53:41;6.10;;;3.50;;
52542;SDS011;38449;52.696;6.186;2024-01-16T06:58:34;5.82;;;3.50;;
52542;SDS011;38449;52.696;6.186;2024-01-16T07:01:01;5.18;;;2.90;;
52542;SDS011;38449;52.696;6.186;2024-01-16T07:03:28;8.02;;;3.95;;
52542;SDS011;38449;52.696;6.186;2024-01-16T07:08:21;6.30;;;2.95;;
52542;SDS011;38449;52.696;6.186;2024-01-16T07:13:13;6.25;;;3.00;;
52542;SDS011;38449;52.696;6.186;2024-01-16T07:15:40;11.05;;;4.18;;
52542;SDS011;38449;52.696;6.186;2024-01-16T07:20:32;6.70;;;3.33;;
52542;SDS011;38449;52.696;6.186;2024-01-16T07:25:25;6.40;;;2.80;;
52542;SDS011;38449;52.696;6.186;2024-01-16T07:27:51;7.15;;;3.17;;
52542;SDS011;38449;52.696;6.186;2024-01-16T07:32:44;4.70;;;3.00;;
52542;SDS011;38449;52.696;6.186;2024-01-16T07:35:10;7.00;;;2.90;;
52542;SDS011;38449;52.696;6.186;2024-01-16T07:37:36;6.53;;;3.30;;
52542;SDS011;38449;52.696;6.186;2024-01-16T07:40:03;5.72;;;3.20;;
52542;SDS011;38449;52.696;6.186;2024-01-16T07:42:32;7.90;;;3.08;;
52542;SDS011;38449;52.696;6.186;2024-01-16T07:45:00;8.07;;;3.50;;
52542;SDS011;38449;52.696;6.186;2024-01-16T07:47:30;7.00;;;3.30;;
52542;SDS011;38449;52.696;6.186;2024-01-16T07:49:57;6.50;;;3.20;;
52542;SDS011;38449;52.696;6.186;2024-01-16T07:52:24;6.82;;;3.60;;
52542;SDS011;38449;52.696;6.186;2024-01-16T07:57:16;7.80;;;3.38;;
52542;SDS011;38449;52.696;6.186;2024-01-16T08:02:08;8.55;;;4.80;;
52542;SDS011;38449;52.696;6.186;2024-01-16T08:07:01;7.88;;;3.55;;
52542;SDS011;38449;52.696;6.186;2024-01-16T08:09:27;6.75;;;4.10;;
52542;SDS011;38449;52.696;6.186;2024-01-16T08:11:54;6.85;;;4.57;;
52542;SDS011;38449;52.696;6.186;2024-01-16T08:16:46;6.18;;;4.45;;
52542;SDS011;38449;52.696;6.186;2024-01-16T08:19:13;8.10;;;4.97;;
52542;SDS011;38449;52.696;6.186;2024-01-16T08:21:39;7.25;;;5.10;;
52542;SDS011;38449;52.696;6.186;2024-01-16T08:26:32;7.25;;;4.85;;
52542;SDS011;38449;52.696;6.186;2024-01-16T08:28:58;8.82;;;4.10;;
52542;SDS011;38449;52.696;6.186;2024-01-16T08:31:24;8.82;;;4.18;;
52542;SDS011;38449;52.696;6.186;2024-01-16T08:36:17;7.38;;;4.97;;
52542;SDS011;38449;52.696;6.186;2024-01-16T08:38:43;7.32;;;3.67;;
52542;SDS011;38449;52.696;6.186;2024-01-16T08:41:10;7.18;;;4.05;;
52542;SDS011;38449;52.696;6.186;2024-01-16T08:43:36;7.00;;;4.07;;
52542;SDS011;38449;52.696;6.186;2024-01-16T08:48:29;5.00;;;3.42;;
52542;SDS011;38449;52.696;6.186;2024-01-16T08:53:21;7.22;;;3.90;;
52542;SDS011;38449;52.696;6.186;2024-01-16T08:55:49;5.93;;;4.15;;
52542;SDS011;38449;52.696;6.186;2024-01-16T08:58:15;11.13;;;4.82;;
52542;SDS011;38449;52.696;6.186;2024-01-16T09:00:41;8.48;;;3.65;;
52542;SDS011;38449;52.696;6.186;2024-01-16T09:05:40;8.40;;;3.95;;
52542;SDS011;38449;52.696;6.186;2024-01-16T09:08:06;9.57;;;4.05;;
52542;SDS011;38449;52.696;6.186;2024-01-16T09:10:33;5.53;;;3.33;;
52542;SDS011;38449;52.696;6.186;2024-01-16T09:15:25;5.10;;;3.40;;
52542;SDS011;38449;52.696;6.186;2024-01-16T09:20:17;4.82;;;3.30;;
52542;SDS011;38449;52.696;6.186;2024-01-16T09:25:10;6.10;;;3.15;;
52542;SDS011;38449;52.696;6.186;2024-01-16T09:30:05;5.38;;;3.28;;
52542;SDS011;38449;52.696;6.186;2024-01-16T09:32:33;6.82;;;3.67;;
52542;SDS011;38449;52.696;6.186;2024-01-16T09:35:01;5.75;;;4.18;;
52542;SDS011;38449;52.696;6.186;2024-01-16T09:37:30;6.70;;;3.85;;
52542;SDS011;38449;52.696;6.186;2024-01-16T09:42:22;18.77;;;6.93;;
52542;SDS011;38449;52.696;6.186;2024-01-16T09:44:50;11.45;;;3.95;;
52542;SDS011;38449;52.696;6.186;2024-01-16T09:47:18;15.55;;;5.60;;
52542;SDS011;38449;52.696;6.186;2024-01-16T09:49:45;10.05;;;2.92;;
52542;SDS011;38449;52.696;6.186;2024-01-16T09:52:13;10.73;;;2.80;;
52542;SDS011;38449;52.696;6.186;2024-01-16T09:54:39;5.32;;;2.22;;
52542;SDS011;38449;52.696;6.186;2024-01-16T09:57:06;7.72;;;2.70;;
52542;SDS011;38449;52.696;6.186;2024-01-16T09:59:33;9.02;;;2.75;;
52542;SDS011;38449;52.696;6.186;2024-01-16T10:02:02;10.35;;;3.40;;
52542;SDS011;38449;52.696;6.186;2024-01-16T10:04:32;17.85;;;6.18;;
52542;SDS011;38449;52.696;6.186;2024-01-16T10:07:01;20.38;;;4.93;;
52542;SDS011;38449;52.696;6.186;2024-01-16T10:09:29;21.23;;;5.30;;
52542;SDS011;38449;52.696;6.186;2024-01-16T10:11:55;26.38;;;7.45;;
52542;SDS011;38449;52.696;6.186;2024-01-16T10:14:24;17.10;;;4.15;;
52542;SDS011;38449;52.696;6.186;2024-01-16T10:16:54;27.45;;;5.72;;
52542;SDS011;38449;52.696;6.186;2024-01-16T10:19:21;25.30;;;6.05;;
52542;SDS011;38449;52.696;6.186;2024-01-16T10:21:50;23.58;;;5.57;;
52542;SDS011;38449;52.696;6.186;2024-01-16T10:24:17;20.30;;;6.30;;
52542;SDS011;38449;52.696;6.186;2024-01-16T10:26:43;19.08;;;6.65;;
52542;SDS011;38449;52.696;6.186;2024-01-16T10:31:36;10.55;;;3.22;;
52542;SDS011;38449;52.696;6.186;2024-01-16T10:34:18;6.03;;;2.63;;
52542;SDS011;38449;52.696;6.186;2024-01-16T10:36:46;14.75;;;3.65;;
52542;SDS011;38449;52.696;6.186;2024-01-16T10:39:15;23.80;;;4.85;;
52542;SDS011;38449;52.696;6.186;2024-01-16T10:42:04;29.08;;;7.32;;
52542;SDS011;38449;52.696;6.186;2024-01-16T10:44:31;11.77;;;2.92;;
52542;SDS011;38449;52.696;6.186;2024-01-16T10:47:10;5.60;;;2.38;;
52542;SDS011;38449;52.696;6.186;2024-01-16T10:49:40;5.07;;;2.00;;
52542;SDS011;38449;52.696;6.186;2024-01-16T10:52:09;11.18;;;3.70;;
52542;SDS011;38449;52.696;6.186;2024-01-16T10:54:37;7.15;;;3.13;;
52542;SDS011;38449;52.696;6.186;2024-01-16T10:57:13;7.68;;;3.60;;
52542;SDS011;38449;52.696;6.186;2024-01-16T10:59:50;6.05;;;3.53;;
52542;SDS011;38449;52.696;6.186;2024-01-16T11:02:43;9.38;;;3.55;;
52542;SDS011;38449;52.696;6.186;2024-01-16T11:05:13;6.05;;;3.15;;
52542;SDS011;38449;52.696;6.186;2024-01-16T11:07:42;5.93;;;3.30;;
52542;SDS011;38449;52.696;6.186;2024-01-16T11:10:09;4.45;;;3.00;;
52542;SDS011;38449;52.696;6.186;2024-01-16T11:12:39;5.25;;;2.92;;
52542;SDS011;38449;52.696;6.186;2024-01-16T11:15:07;5.50;;;3.17;;
52542;SDS011;38449;52.696;6.186;2024-01-16T11:17:38;7.93;;;2.83;;
52542;SDS011;38449;52.696;6.186;2024-01-16T11:20:05;7.10;;;4.35;;
52542;SDS011;38449;52.696;6.186;2024-01-16T11:22:43;7.13;;;3.17;;
52542;SDS011;38449;52.696;6.186;2024-01-16T11:25:10;6.22;;;3.15;;
52542;SDS011;38449;52.696;6.186;2024-01-16T11:27:38;7.30;;;3.00;;
52542;SDS011;38449;52.696;6.186;2024-01-16T11:30:06;6.78;;;4.40;;
52542;SDS011;38449;52.696;6.186;2024-01-16T11:32:40;9.25;;;5.10;;
52542;SDS011;38449;52.696;6.186;2024-01-16T11:35:07;9.20;;;5.15;;
52542;SDS011;38449;52.696;6.186;2024-01-16T11:37:39;9.52;;;5.85;;
52542;SDS011;38449;52.696;6.186;2024-01-16T11:42:48;8.98;;;6.03;;
52542;SDS011;38449;52.696;6.186;2024-01-16T11:48:08;11.88;;;6.70;;
52542;SDS011;38449;52.696;6.186;2024-01-16T11:50:38;9.82;;;6.45;;
52542;SDS011;38449;52.696;6.186;2024-01-16T11:53:06;9.60;;;6.07;;
52542;SDS011;38449;52.696;6.186;2024-01-16T11:55:34;10.60;;;5.72;;
52542;SDS011;38449;52.696;6.186;2024-01-16T12:01:11;10.90;;;6.15;;
52542;SDS011;38449;52.696;6.186;2024-01-16T12:03:37;10.45;;;6.25;;
52542;SDS011;38449;52.696;6.186;2024-01-16T12:06:04;9.15;;;5.20;;
52542;SDS011;38449;52.696;6.186;2024-01-16T12:08:32;9.38;;;6.30;;
52542;SDS011;38449;52.696;6.186;2024-01-16T12:10:58;9.20;;;6.18;;
52542;SDS011;38449;52.696;6.186;2024-01-16T12:13:27;7.70;;;5.72;;
52542;SDS011;38449;52.696;6.186;2024-01-16T12:16:00;7.82;;;4.72;;
52542;SDS011;38449;52.696;6.186;2024-01-16T12:18:29;8.35;;;5.25;;
52542;SDS011;38449;52.696;6.186;2024-01-16T12:20:56;8.30;;;5.85;;
52542;SDS011;38449;52.696;6.186;2024-01-16T12:23:24;8.60;;;4.53;;
52542;SDS011;38449;52.696;6.186;2024-01-16T12:25:53;8.40;;;5.03;;
52542;SDS011;38449;52.696;6.186;2024-01-16T12:28:20;7.35;;;4.60;;
52542;SDS011;38449;52.696;6.186;2024-01-16T12:30:50;12.68;;;4.88;;
52542;SDS011;38449;52.696;6.186;2024-01-16T12:33:20;7.18;;;4.50;;
52542;SDS011;38449;52.696;6.186;2024-01-16T12:35:48;8.63;;;4.50;;
52542;SDS011;38449;52.696;6.186;2024-01-16T12:38:16;11.02;;;4.00;;
52542;SDS011;38449;52.696;6.186;2024-01-16T12:40:45;6.95;;;4.57;;
52542;SDS011;38449;52.696;6.186;2024-01-16T12:43:18;6.90;;;3.50;;
52542;SDS011;38449;52.696;6.186;2024-01-16T12:45:45;6.78;;;3.78;;
52542;SDS011;38449;52.696;6.186;2024-01-16T12:48:13;6.82;;;3.47;;
52542;SDS011;38449;52.696;6.186;2024-01-16T12:50:39;6.93;;;4.20;;
52542;SDS011;38449;52.696;6.186;2024-01-16T12:53:09;6.88;;;3.50;;
52542;SDS011;38449;52.696;6.186;2024-01-16T12:55:37;8.15;;;3.58;;
52542;SDS011;38449;52.696;6.186;2024-01-16T12:58:22;7.00;;;3.40;;
52542;SDS011;38449;52.696;6.186;2024-01-16T13:00:53;4.22;;;3.03;;
52542;SDS011;38449;52.696;6.186;2024-01-16T13:03:22;4.90;;;3.35;;
52542;SDS011;38449;52.696;6.186;2024-01-16T13:05:57;7.93;;;3.30;;
52542;SDS011;38449;52.696;6.186;2024-01-16T13:08:25;6.18;;;3.20;;
52542;SDS011;38449;52.696;6.186;2024-01-16T13:11:05;7.35;;;3.10;;
52542;SDS011;38449;52.696;6.186;2024-01-16T13:13:35;5.88;;;2.83;;
52542;SDS011;38449;52.696;6.186;2024-01-16T13:16:03;8.25;;;3.35;;
52542;SDS011;38449;52.696;6.186;2024-01-16T13:18:34;6.25;;;3.10;;
52542;SDS011;38449;52.696;6.186;2024-01-16T13:21:01;3.60;;;3.00;;
52542;SDS011;38449;52.696;6.186;2024-01-16T13:23:28;6.65;;;2.63;;
52542;SDS011;38449;52.696;6.186;2024-01-16T13:25:55;6.18;;;3.60;;
52542;SDS011;38449;52.696;6.186;2024-01-16T13:28:22;7.22;;;3.47;;
52542;SDS011;38449;52.696;6.186;2024-01-16T13:30:50;5.80;;;2.40;;
52542;SDS011;38449;52.696;6.186;2024-01-16T13:33:16;5.40;;;2.72;;
52542;SDS011;38449;52.696;6.186;2024-01-16T13:35:43;4.68;;;3.08;;
52542;SDS011;38449;52.696;6.186;2024-01-16T13:38:16;6.82;;;3.00;;
52542;SDS011;38449;52.696;6.186;2024-01-16T13:40:42;5.90;;;3.00;;
52542;SDS011;38449;52.696;6.186;2024-01-16T13:43:08;5.90;;;2.63;;
52542;SDS011;38449;52.696;6.186;2024-01-16T13:45:35;6.70;;;2.90;;
52542;SDS011;38449;52.696;6.186;2024-01-16T13:48:01;5.07;;;2.53;;
52542;SDS011;38449;52.696;6.186;2024-01-16T13:50:28;5.18;;;2.83;;
52542;SDS011;38449;52.696;6.186;2024-01-16T13:52:55;8.07;;;2.42;;
52542;SDS011;38449;52.696;6.186;2024-01-16T13:55:22;4.75;;;2.50;;
52542;SDS011;38449;52.696;6.186;2024-01-16T13:57:48;5.28;;;2.60;;
52542;SDS011;38449;52.696;6.186;2024-01-16T14:00:15;3.65;;;1.90;;
52542;SDS011;38449;52.696;6.186;2024-01-16T14:02:43;4.15;;;2.47;;
52542;SDS011;38449;52.696;6.186;2024-01-16T14:05:11;6.03;;;2.67;;
52542;SDS011;38449;52.696;6.186;2024-01-16T14:07:41;7.05;;;2.85;;
52542;SDS011;38449;52.696;6.186;2024-01-16T14:10:08;6.43;;;2.15;;
52542;SDS011;38449;52.696;6.186;2024-01-16T14:12:36;4.85;;;2.00;;
52542;SDS011;38449;52.696;6.186;2024-01-16T14:15:02;6.32;;;2.53;;
52542;SDS011;38449;52.696;6.186;2024-01-16T14:17:32;4.80;;;2.88;;
52542;SDS011;38449;52.696;6.186;2024-01-16T14:19:59;5.43;;;2.83;;
52542;SDS011;38449;52.696;6.186;2024-01-16T14:22:26;6.53;;;3.03;;
52542;SDS011;38449;52.696;6.186;2024-01-16T14:24:53;5.35;;;2.80;;
52542;SDS011;38449;52.696;6.186;2024-01-16T14:27:19;5.88;;;2.28;;
52542;SDS011;38449;52.696;6.186;2024-01-16T14:29:45;8.40;;;2.53;;
52542;SDS011;38449;52.696;6.186;2024-01-16T14:32:12;5.85;;;2.50;;
52542;SDS011;38449;52.696;6.186;2024-01-16T14:34:38;4.63;;;3.03;;
52542;SDS011;38449;52.696;6.186;2024-01-16T14:37:04;6.50;;;2.72;;
52542;SDS011;38449;52.696;6.186;2024-01-16T14:39:31;4.00;;;2.63;;
52542;SDS011;38449;52.696;6.186;2024-01-16T14:41:57;5.88;;;2.30;;
52542;SDS011;38449;52.696;6.186;2024-01-16T14:44:28;5.50;;;2.65;;
52542;SDS011;38449;52.696;6.186;2024-01-16T14:46:55;5.68;;;2.60;;
52542;SDS011;38449;52.696;6.186;2024-01-16T14:49:21;4.47;;;2.30;;
52542;SDS011;38449;52.696;6.186;2024-01-16T14:51:47;5.70;;;2.97;;
52542;SDS011;38449;52.696;6.186;2024-01-16T14:54:13;6.43;;;2.53;;
52542;SDS011;38449;52.696;6.186;2024-01-16T14:56:39;8.18;;;2.60;;
52542;SDS011;38449;52.696;6.186;2024-01-16T14:59:06;6.20;;;2.60;;
52542;SDS011;38449;52.696;6.186;2024-01-16T15:01:34;7.38;;;2.40;;
52542;SDS011;38449;52.696;6.186;2024-01-16T15:04:02;5.75;;;2.08;;
52542;SDS011;38449;52.696;6.186;2024-01-16T15:06:28;6.35;;;3.90;;
52542;SDS011;38449;52.696;6.186;2024-01-16T15:08:55;3.92;;;2.42;;
52542;SDS011;38449;52.696;6.186;2024-01-16T15:11:22;9.00;;;8.27;;
52542;SDS011;38449;52.696;6.186;2024-01-16T15:13:48;6.55;;;5.88;;
52542;SDS011;38449;52.696;6.186;2024-01-16T15:16:15;4.07;;;2.00;;
52542;SDS011;38449;52.696;6.186;2024-01-16T15:18:42;10.20;;;3.53;;
52542;SDS011;38449;52.696;6.186;2024-01-16T15:21:09;3.38;;;2.25;;
52542;SDS011;38449;52.696;6.186;2024-01-16T15:23:35;6.43;;;2.63;;
52542;SDS011;38449;52.696;6.186;2024-01-16T15:26:02;6.50;;;2.25;;
52542;SDS011;38449;52.696;6.186;2024-01-16T15:28:31;5.70;;;2.40;;
52542;SDS011;38449;52.696;6.186;2024-01-16T15:30:58;8.98;;;5.00;;
52542;SDS011;38449;52.696;6.186;2024-01-16T15:33:24;4.90;;;2.83;;
52542;SDS011;38449;52.696;6.186;2024-01-16T15:35:50;3.90;;;2.70;;
52542;SDS011;38449;52.696;6.186;2024-01-16T15:38:16;6.18;;;2.58;;
52542;SDS011;38449;52.696;6.186;2024-01-16T15:40:44;7.22;;;3.75;;
52542;SDS011;38449;52.696;6.186;2024-01-16T15:43:10;4.50;;;1.92;;
52542;SDS011;38449;52.696;6.186;2024-01-16T15:45:36;5.45;;;2.50;;
52542;SDS011;38449;52.696;6.186;2024-01-16T15:48:02;5.78;;;2.67;;
52542;SDS011;38449;52.696;6.186;2024-01-16T15:50:29;4.70;;;2.03;;
52542;SDS011;38449;52.696;6.186;2024-01-16T15:52:57;5.40;;;2.78;;
52542;SDS011;38449;52.696;6.186;2024-01-16T15:55:25;3.88;;;2.15;;
52542;SDS011;38449;52.696;6.186;2024-01-16T15:57:51;5.05;;;2.33;;
52542;SDS011;38449;52.696;6.186;2024-01-16T16:00:17;4.95;;;4.47;;
52542;SDS011;38449;52.696;6.186;2024-01-16T16:02:45;4.43;;;2.28;;
52542;SDS011;38449;52.696;6.186;2024-01-16T16:05:13;5.15;;;2.70;;
52542;SDS011;38449;52.696;6.186;2024-01-16T16:07:40;5.72;;;2.50;;
52542;SDS011;38449;52.696;6.186;2024-01-16T16:10:06;4.88;;;2.15;;
52542;SDS011;38449;52.696;6.186;2024-01-16T16:12:34;6.30;;;2.92;;
52542;SDS011;38449;52.696;6.186;2024-01-16T16:15:00;5.65;;;2.00;;
52542;SDS011;38449;52.696;6.186;2024-01-16T16:17:26;7.07;;;2.88;;
52542;SDS011;38449;52.696;6.186;2024-01-16T16:19:53;3.92;;;2.22;;
52542;SDS011;38449;52.696;6.186;2024-01-16T16:22:19;5.00;;;2.88;;
52542;SDS011;38449;52.696;6.186;2024-01-16T16:24:46;6.93;;;3.75;;
52542;SDS011;38449;52.696;6.186;2024-01-16T16:27:25;5.60;;;3.00;;
52542;SDS011;38449;52.696;6.186;2024-01-16T16:29:52;11.60;;;10.43;;
52542;SDS011;38449;52.696;6.186;2024-01-16T16:32:19;5.50;;;4.50;;
52542;SDS011;38449;52.696;6.186;2024-01-16T16:34:46;4.93;;;3.25;;
52542;SDS011;38449;52.696;6.186;2024-01-16T16:37:13;4.40;;;3.25;;
52542;SDS011;38449;52.696;6.186;2024-01-16T16:39:39;7.05;;;4.18;;
52542;SDS011;38449;52.696;6.186;2024-01-16T16:42:05;5.07;;;3.58;;
52542;SDS011;38449;52.696;6.186;2024-01-16T16:44:34;7.57;;;4.07;;
52542;SDS011;38449;52.696;6.186;2024-01-16T16:47:01;6.38;;;5.63;;
52542;SDS011;38449;52.696;6.186;2024-01-16T16:49:28;7.10;;;4.40;;
52542;SDS011;38449;52.696;6.186;2024-01-16T16:51:54;6.28;;;4.53;;
52542;SDS011;38449;52.696;6.186;2024-01-16T16:54:20;7.80;;;4.10;;
52542;SDS011;38449;52.696;6.186;2024-01-16T16:56:46;7.43;;;4.13;;
52542;SDS011;38449;52.696;6.186;2024-01-16T16:59:13;6.18;;;3.60;;
52542;SDS011;38449;52.696;6.186;2024-01-16T17:01:39;8.93;;;5.03;;
52542;SDS011;38449;52.696;6.186;2024-01-16T17:04:05;7.00;;;4.00;;
52542;SDS011;38449;52.696;6.186;2024-01-16T17:06:34;7.68;;;4.10;;
52542;SDS011;38449;52.696;6.186;2024-01-16T17:09:01;9.13;;;4.57;;
52542;SDS011;38449;52.696;6.186;2024-01-16T17:11:30;12.68;;;6.43;;
52542;SDS011;38449;52.696;6.186;2024-01-16T17:13:56;11.70;;;6.70;;
52542;SDS011;38449;52.696;6.186;2024-01-16T17:16:23;13.57;;;5.43;;
52542;SDS011;38449;52.696;6.186;2024-01-16T17:18:50;16.88;;;7.55;;
52542;SDS011;38449;52.696;6.186;2024-01-16T17:23:44;13.02;;;8.38;;
52542;SDS011;38449;52.696;6.186;2024-01-16T17:26:10;14.20;;;12.05;;
52542;SDS011;38449;52.696;6.186;2024-01-16T17:28:37;7.15;;;5.05;;
52542;SDS011;38449;52.696;6.186;2024-01-16T17:31:04;5.45;;;4.10;;
52542;SDS011;38449;52.696;6.186;2024-01-16T17:33:30;7.38;;;4.68;;
52542;SDS011;38449;52.696;6.186;2024-01-16T17:35:58;8.95;;;3.78;;
52542;SDS011;38449;52.696;6.186;2024-01-16T17:38:31;6.75;;;3.90;;
52542;SDS011;38449;52.696;6.186;2024-01-16T17:40:58;7.65;;;4.47;;
52542;SDS011;38449;52.696;6.186;2024-01-16T17:43:26;9.18;;;4.10;;